Time;durP1;ratioP1;P1;durP2;ratioP2;P2;SDS_P1;SDS_P2;PMS_P1;PMS_P2;Temp;Humidity;BMP_temperature;BMP_pressure;BME280_temperature;BME280_humidity;BME280_pressure;Samples;Min_cycle;Max_cycle;Signal;HPM_P1;HPM_P2
2022/06/17 00:01:04;;;;;;;4.05;1.67;;;;;;;14.58;56.93;101090.33;1812365;78;22014;-76
2022/06/17 00:03:34;;;;;;;2.17;1.57;;;;;;;14.54;57.04;101092.69;1815283;78;21057;-76
2022/06/17 00:06:04;;;;;;;2.08;1.50;;;;;;;14.45;57.20;101089.94;1828846;78;21070;-76
2022/06/17 00:08:39;;;;;;;2.77;1.37;;;;;;;14.36;57.28;101092.51;1788285;77;21946;-76
2022/06/17 00:11:19;;;;;;;3.15;1.65;;;;;;;14.29;57.52;101102.44;1828467;78;21524;-76
2022/06/17 00:13:46;;;;;;;3.35;1.62;;;;;;;14.24;57.68;101103.11;1807425;78;21556;-76
2022/06/17 00:16:17;;;;;;;2.45;1.42;;;;;;;14.23;58.04;101104.48;1797946;78;21006;-76
2022/06/17 00:18:44;;;;;;;2.30;1.40;;;;;;;14.22;58.23;101104.95;1817175;78;20999;-76
2022/06/17 00:21:29;;;;;;;2.85;1.52;;;;;;;14.22;58.37;101104.09;1828824;78;21089;-76
2022/06/17 00:23:58;;;;;;;3.90;1.90;;;;;;;14.20;58.37;101102.82;1829148;78;21050;-76
2022/06/17 00:26:26;;;;;;;2.80;1.50;;;;;;;14.19;58.43;101110.34;1831545;78;21050;-77
2022/06/17 00:28:53;;;;;;;3.62;1.60;;;;;;;14.17;58.54;101113.97;1828851;78;21034;-76
2022/06/17 00:31:20;;;;;;;3.12;1.70;;;;;;;14.13;58.54;101116.31;1824288;77;20975;-77
2022/06/17 00:33:47;;;;;;;3.43;1.60;;;;;;;14.08;58.60;101119.59;1822046;78;21036;-77
2022/06/17 00:36:18;;;;;;;4.58;1.65;;;;;;;14.01;58.72;101118.52;1831615;78;21564;-77
2022/06/17 00:38:46;;;;;;;2.92;1.57;;;;;;;13.96;58.80;101121.79;1831378;78;20986;-76
2022/06/17 00:41:31;;;;;;;4.22;1.60;;;;;;;13.96;59.03;101120.94;1829266;78;21027;-76
2022/06/17 00:44:01;;;;;;;2.37;1.67;;;;;;;13.93;59.19;101119.28;1798706;78;21066;-76
2022/06/17 00:46:56;;;;;;;3.25;1.55;;;;;;;13.89;59.19;101112.43;1823454;77;20976;-77
2022/06/17 00:49:34;;;;;;;2.20;1.65;;;;;;;13.85;59.41;101113.45;1823857;78;21050;-76
2022/06/17 00:52:09;;;;;;;2.40;1.65;;;;;;;13.82;59.52;101112.26;1830593;78;21014;-77
2022/06/17 00:54:47;;;;;;;5.37;2.17;;;;;;;13.79;59.66;101113.70;1808182;78;21273;-76
2022/06/17 00:57:32;;;;;;;3.70;1.77;;;;;;;13.74;59.65;101113.87;1819602;78;21154;-77
2022/06/17 01:00:10;;;;;;;2.95;1.90;;;;;;;13.70;59.80;101114.06;1830695;78;21129;-77
2022/06/17 01:02:46;;;;;;;3.33;2.02;;;;;;;13.60;59.86;101115.72;1831605;78;21517;-77
2022/06/17 01:05:17;;;;;;;4.87;2.10;;;;;;;13.54;59.99;101117.73;1818023;78;21035;-76
2022/06/17 01:07:50;;;;;;;2.77;2.05;;;;;;;13.47;60.14;101113.60;1831313;78;20963;-76
2022/06/17 01:10:19;;;;;;;4.75;1.92;;;;;;;13.44;60.48;101109.77;1818175;78;21427;-76
2022/06/17 01:13:01;;;;;;;4.50;1.70;;;;;;;13.35;60.46;101104.39;1823048;78;21068;-76
2022/06/17 01:15:32;;;;;;;3.50;2.00;;;;;;;13.31;60.73;101100.17;1805659;78;21023;-77
2022/06/17 01:18:01;;;;;;;4.53;1.70;;;;;;;13.26;60.81;101100.34;1831360;77;21509;-76
2022/06/17 01:20:31;;;;;;;4.62;2.05;;;;;;;13.21;60.98;101102.70;1818005;78;21555;-77
2022/06/17 01:23:12;;;;;;;3.70;1.80;;;;;;;13.19;61.17;101104.09;1831371;78;22209;-76
2022/06/17 01:25:45;;;;;;;3.50;1.65;;;;;;;13.15;61.20;101102.47;1828553;78;21084;-77
2022/06/17 01:28:16;;;;;;;3.90;1.77;;;;;;;13.10;61.37;101109.20;1812510;78;20988;-76
2022/06/17 01:30:54;;;;;;;4.40;2.00;;;;;;;13.11;61.70;101111.41;1821791;78;21038;-76
2022/06/17 01:33:32;;;;;;;3.17;2.00;;;;;;;13.10;61.61;101105.27;1831482;77;20948;-76
2022/06/17 01:36:12;;;;;;;4.78;1.72;;;;;;;13.06;61.75;101104.98;1831415;77;21065;-76
2022/06/17 01:38:43;;;;;;;3.75;1.75;;;;;;;13.08;61.98;101105.80;1812284;78;21007;-77
2022/06/17 01:41:14;;;;;;;2.83;1.72;;;;;;;13.06;61.93;101105.45;1831314;78;20975;-77
2022/06/17 01:43:55;;;;;;;2.45;1.92;;;;;;;13.01;61.91;101108.23;1831301;78;21512;-76
2022/06/17 01:46:36;;;;;;;4.62;1.72;;;;;;;13.01;62.07;101106.06;1828669;77;21081;-76
2022/06/17 01:49:09;;;;;;;;;;;;;;;12.99;62.29;101115.78;1803389;78;21037;-76
2022/06/17 01:51:42;;;;;;;4.80;1.90;;;;;;;13.04;62.55;101110.75;1815059;78;21100;-76
2022/06/17 01:54:14;;;;;;;3.08;2.08;;;;;;;13.02;62.47;101118.30;1831727;78;21010;-76
2022/06/17 01:56:44;;;;;;;3.17;1.57;;;;;;;13.05;62.78;101107.66;1817742;78;21496;-76
2022/06/17 01:59:16;;;;;;;4.80;1.85;;;;;;;13.07;62.60;101109.32;1831720;78;21023;-75
2022/06/17 02:01:48;;;;;;;2.87;1.90;;;;;;;13.05;62.59;101113.81;1829573;77;21014;-76
2022/06/17 02:04:23;;;;;;;4.97;1.82;;;;;;;13.02;62.55;101120.47;1821051;78;21074;-76
2022/06/17 02:07:25;;;;;;;2.80;1.87;;;;;;;13.02;62.82;101116.98;1814736;77;21061;-76
2022/06/17 02:09:54;;;;;;;3.67;2.30;;;;;;;12.99;62.66;101119.27;1807860;78;20979;-76
2022/06/17 02:12:24;;;;;;;3.72;1.72;;;;;;;12.98;62.82;101118.87;1825726;78;21018;-75
2022/06/17 02:14:55;;;;;;;2.45;1.80;;;;;;;12.95;62.76;101120.30;1823529;78;21509;-76
2022/06/17 02:17:34;;;;;;;4.22;1.82;;;;;;;12.90;62.75;101120.45;1819995;78;21087;-75
2022/06/17 02:20:09;;;;;;;5.92;2.00;;;;;;;12.82;62.72;101119.00;1816778;78;20965;-76
2022/06/17 02:22:37;;;;;;;3.72;1.82;;;;;;;12.76;62.98;101123.17;1825974;77;21500;-75
2022/06/17 02:25:10;;;;;;;2.00;1.63;;;;;;;12.66;62.84;101123.47;1812680;78;20979;-76
2022/06/17 02:27:37;;;;;;;3.35;1.90;;;;;;;12.56;63.01;101133.06;1798998;77;21046;-76
2022/06/17 02:30:08;;;;;;;2.77;2.20;;;;;;;12.45;63.14;101136.05;1780736;78;21540;-76
2022/06/17 02:32:38;;;;;;;2.62;1.80;;;;;;;12.38;63.45;101150.28;1831207;78;21022;-76
2022/06/17 02:35:16;;;;;;;2.15;1.90;;;;;;;12.31;63.64;101154.90;1809698;78;21054;-75
2022/06/17 02:37:43;;;;;;;2.98;1.87;;;;;;;12.26;63.76;101158.13;1831390;78;21039;-76
2022/06/17 02:40:34;;;;;;;4.85;2.00;;;;;;;12.15;63.83;101163.72;1831516;78;21054;-75
2022/06/17 02:43:06;;;;;;;4.50;1.87;;;;;;;12.08;64.12;101166.57;1715265;80;21191;-76
2022/06/17 02:45:37;;;;;;;4.43;2.13;;;;;;;12.01;64.33;101171.17;1734084;82;21120;-76
2022/06/17 02:48:10;;;;;;;2.47;2.00;;;;;;;11.97;64.60;101177.41;1710852;82;21048;-76
2022/06/17 02:50:37;;;;;;;5.40;2.53;;;;;;;11.93;64.74;101178.42;1716153;82;21193;-75
2022/06/17 02:53:05;;;;;;;4.10;2.30;;;;;;;11.89;65.00;101182.03;1713390;82;21111;-76
2022/06/17 02:55:37;;;;;;;3.60;2.00;;;;;;;11.88;65.18;101181.63;1734239;82;21125;-76
2022/06/17 02:58:26;;;;;;;5.40;2.50;;;;;;;11.85;65.39;101178.61;1713572;82;21056;-76
2022/06/17 03:00:53;;;;;;;2.97;2.30;;;;;;;11.87;65.66;101179.92;1717746;82;21072;-76
2022/06/17 03:03:22;;;;;;;5.27;2.50;;;;;;;11.86;65.85;101180.81;1733942;81;21571;-75
2022/06/17 03:05:49;;;;;;;3.43;2.40;;;;;;;11.88;65.96;101178.55;1722926;82;21028;-76
2022/06/17 03:08:24;;;;;;;3.40;2.20;;;;;;;11.88;66.20;101181.17;1704808;82;21147;-76
2022/06/17 03:10:55;;;;;;;2.90;2.43;;;;;;;11.91;66.22;101182.39;1714662;82;21005;-76
2022/06/17 03:13:34;;;;;;;3.40;2.60;;;;;;;11.88;66.17;101179.01;1734425;81;21091;-76
2022/06/17 03:16:04;;;;;;;3.47;2.53;;;;;;;11.82;66.32;101184.81;1732696;82;21088;-76
2022/06/17 03:18:32;;;;;;;4.22;2.47;;;;;;;11.78;66.40;101188.91;1742754;78;21106;-76
2022/06/17 03:21:00;;;;;;;5.00;2.70;;;;;;;11.73;66.59;101184.24;1825343;77;21119;-76
2022/06/17 03:24:03;;;;;;;5.20;2.40;;;;;;;11.72;66.82;101186.02;1822975;76;20980;-76
2022/06/17 03:26:35;;;;;;;5.37;2.57;;;;;;;11.73;66.98;101188.18;1783419;78;20995;-75
2022/06/17 03:29:06;;;;;;;5.20;2.60;;;;;;;11.73;67.25;101189.49;1817533;78;21046;-75
2022/06/17 03:31:39;;;;;;;3.77;2.30;;;;;;;11.75;67.33;101188.55;1828386;78;21077;-75
2022/06/17 03:34:15;;;;;;;2.90;2.03;;;;;;;11.77;67.50;101193.73;1828575;78;21110;-76
2022/06/17 03:37:02;;;;;;;3.67;2.50;;;;;;;11.81;67.63;101198.01;1811380;77;21030;-76
2022/06/17 03:39:44;;;;;;;6.23;2.67;;;;;;;11.88;68.01;101203.50;1814294;78;20951;-78
2022/06/17 03:42:22;;;;;;;4.30;2.60;;;;;;;11.99;68.20;101211.07;1772303;79;21070;-80
2022/06/17 03:44:59;;;;;;;3.85;1.98;;;;;;;12.09;68.20;101216.47;1820405;78;21053;-80
2022/06/17 03:47:47;;;;;;;2.92;2.50;;;;;;;12.18;68.40;101210.06;1820322;77;21260;-76
2022/06/17 03:50:25;;;;;;;3.17;2.20;;;;;;;12.26;68.24;101215.48;1798689;78;20976;-76
2022/06/17 03:53:07;;;;;;;3.10;2.17;;;;;;;12.33;68.18;101208.72;1790739;77;21022;-76
2022/06/17 03:55:35;;;;;;;3.57;2.20;;;;;;;12.36;68.09;101212.13;1818509;78;21450;-77
2022/06/17 03:58:06;;;;;;;3.42;2.17;;;;;;;12.37;68.12;101199.84;1799843;78;22182;-77
2022/06/17 04:00:53;;;;;;;;;;;;;;;12.43;68.23;101212.78;1778763;78;21485;-76
2022/06/17 04:03:25;;;;;;;2.40;2.10;;;;;;;12.49;68.64;101212.13;1827331;77;20197;-77
2022/06/17 04:06:01;;;;;;;4.08;2.37;;;;;;;12.56;68.53;101214.58;1804909;78;20992;-77
2022/06/17 04:08:31;;;;;;;4.45;3.02;;;;;;;12.63;68.54;101216.94;1816103;78;20976;-77
2022/06/17 04:10:59;;;;;;;4.87;2.58;;;;;;;12.69;68.64;101222.03;1805501;77;21050;-77
2022/06/17 04:13:31;;;;;;;4.12;2.33;;;;;;;12.77;68.64;101217.80;1812650;78;21520;-77
2022/06/17 04:16:32;;;;;;;2.95;2.42;;;;;;;12.83;68.60;101218.94;1828002;78;21014;-77
2022/06/17 04:19:17;;;;;;;5.47;2.40;;;;;;;12.90;68.55;101227.02;1828431;78;21256;-78
2022/06/17 04:21:47;;;;;;;4.70;2.27;;;;;;;12.97;68.67;101230.31;1827381;78;21015;-79
2022/06/17 04:24:19;;;;;;;2.83;2.00;;;;;;;13.05;68.63;101233.98;1759733;78;21035;-79
2022/06/17 04:27:02;;;;;;;6.12;2.05;;;;;;;13.12;68.65;101233.73;1793194;78;21108;-79
2022/06/17 04:29:44;;;;;;;2.27;1.82;;;;;;;13.19;68.68;101234.40;1807111;77;20979;-78
2022/06/17 04:32:32;;;;;;;3.12;2.00;;;;;;;13.27;68.75;101234.99;1819842;77;21038;-79
2022/06/17 04:35:00;;;;;;;3.12;2.15;;;;;;;13.35;68.67;101228.15;1824637;78;21074;-79
2022/06/17 04:37:28;;;;;;;4.20;2.17;;;;;;;13.47;68.66;101234.31;1808575;78;21554;-79
2022/06/17 04:40:07;;;;;;;2.62;2.00;;;;;;;13.55;68.59;101230.95;1776149;78;21132;-78
2022/06/17 04:42:44;;;;;;;4.15;2.00;;;;;;;13.66;68.59;101229.67;1808720;78;21010;-76
2022/06/17 04:45:26;;;;;;;2.52;1.92;;;;;;;13.74;68.45;101228.48;1816902;77;21041;-76
2022/06/17 04:47:57;;;;;;;4.15;2.05;;;;;;;13.82;68.38;101230.37;1817991;78;21533;-76
2022/06/17 04:50:30;;;;;;;1.95;1.67;;;;;;;13.92;68.36;101225.62;1817039;78;22128;-77
2022/06/17 04:52:59;;;;;;;2.92;1.82;;;;;;;14.01;68.36;101221.31;1805338;77;21141;-78
2022/06/17 04:55:32;;;;;;;4.12;1.85;;;;;;;14.12;67.93;101221.38;1801342;78;21631;-78
2022/06/17 04:58:18;;;;;;;1.95;1.50;;;;;;;14.20;67.77;101218.83;1798827;77;21102;-77
2022/06/17 05:00:54;;;;;;;3.25;1.50;;;;;;;14.31;67.59;101221.52;1812329;78;21026;-77
2022/06/17 05:03:27;;;;;;;5.45;1.87;;;;;;;14.41;67.37;101216.26;1817202;78;21430;-78
2022/06/17 05:06:13;;;;;;;2.52;1.55;;;;;;;14.49;67.24;101221.66;1823065;77;21117;-78
2022/06/17 05:08:48;;;;;;;4.80;1.50;;;;;;;14.60;66.90;101213.30;1826967;78;20983;-78
2022/06/17 05:11:34;;;;;;;2.52;1.30;;;;;;;14.69;66.68;101199.76;1826237;78;21039;-78
2022/06/17 05:14:10;;;;;;;2.47;1.35;;;;;;;14.80;66.64;101203.71;1787770;80;21038;-78
2022/06/17 05:16:39;;;;;;;1.62;1.22;;;;;;;14.91;66.54;101212.06;1788626;80;21824;-78
2022/06/17 05:19:06;;;;;;;2.50;1.25;;;;;;;15.02;66.21;101215.11;1781718;80;21180;-78
2022/06/17 05:21:33;;;;;;;3.12;1.75;;;;;;;15.14;66.19;101218.53;1759606;80;22364;-78
2022/06/17 05:24:12;;;;;;;3.00;1.30;;;;;;;15.27;66.03;101224.59;1761013;80;21094;-78
2022/06/17 05:26:40;;;;;;;2.47;1.20;;;;;;;15.39;65.69;101229.36;1760295;81;21075;-78
2022/06/17 05:29:10;;;;;;;3.83;1.30;;;;;;;15.49;65.40;101220.55;1759654;81;21462;-78
2022/06/17 05:31:39;;;;;;;1.75;1.25;;;;;;;15.58;65.00;101216.19;1758159;81;21948;-78
2022/06/17 05:34:09;;;;;;;2.02;1.40;;;;;;;15.66;64.69;101211.42;1767378;81;21082;-78
2022/06/17 05:36:37;;;;;;;3.12;1.10;;;;;;;15.75;64.77;101211.50;1759544;81;21043;-78
2022/06/17 05:39:05;;;;;;;3.08;0.98;;;;;;;15.83;64.33;101209.36;1760316;81;21063;-77
2022/06/17 05:41:33;;;;;;;2.87;1.12;;;;;;;15.90;64.16;101207.28;1758504;81;21656;-78
2022/06/17 05:44:00;;;;;;;3.08;0.85;;;;;;;15.99;63.68;101206.84;1761049;81;21982;-78
2022/06/17 05:46:43;;;;;;;3.65;1.00;;;;;;;16.08;63.47;101212.19;1743424;81;21087;-78
2022/06/17 05:49:15;;;;;;;1.10;0.78;;;;;;;16.19;63.32;101219.16;1761600;81;21023;-78
2022/06/17 05:51:59;;;;;;;1.30;0.78;;;;;;;16.30;63.12;101219.49;1753438;81;21055;-78
2022/06/17 05:54:28;;;;;;;1.30;0.80;;;;;;;16.42;62.76;101214.92;1756458;81;21094;-79
2022/06/17 05:56:57;;;;;;;1.25;0.70;;;;;;;16.53;62.34;101214.88;1758788;81;21798;-79
2022/06/17 05:59:25;;;;;;;2.10;0.70;;;;;;;16.62;62.02;101220.56;1759882;81;21075;-78
2022/06/17 06:01:53;;;;;;;1.62;0.75;;;;;;;16.72;61.71;101224.48;1738234;81;21048;-84
2022/06/17 06:04:25;;;;;;;2.27;1.07;;;;;;;16.80;61.28;101234.73;1758717;81;20992;-79
2022/06/17 06:06:57;;;;;;;1.10;0.53;;;;;;;16.88;60.95;101237.84;1757412;81;20992;-82
2022/06/17 06:09:26;;;;;;;2.83;0.70;;;;;;;16.94;60.70;101235.36;1759599;81;21099;-78
2022/06/17 06:11:53;;;;;;;2.52;0.90;;;;;;;17.01;60.35;101242.52;1757190;81;21521;-78
2022/06/17 06:14:20;;;;;;;1.52;0.70;;;;;;;17.13;60.28;101238.79;1741545;81;21032;-77
2022/06/17 06:16:48;;;;;;;1.90;0.80;;;;;;;17.13;60.28;101238.79;1759966;81;21032;-77
2022/06/17 06:19:15;;;;;;;1.65;0.90;;;;;;;17.20;59.82;101240.64;1762011;81;21106;-78
2022/06/17 06:21:42;;;;;;;2.77;1.00;;;;;;;17.25;59.61;101245.24;1762166;81;22003;-82
2022/06/17 06:24:11;;;;;;;2.73;1.07;;;;;;;17.30;59.56;101246.34;1761590;80;21553;-76
2022/06/17 06:26:40;;;;;;;3.83;0.90;;;;;;;17.35;59.29;101249.14;1795658;79;21061;-75
2022/06/17 06:29:18;;;;;;;1.87;0.85;;;;;;;17.40;59.06;101243.58;1760635;80;21016;-76
2022/06/17 06:31:46;;;;;;;4.30;0.85;;;;;;;17.44;59.04;101237.67;1760781;80;21044;-75
2022/06/17 06:34:21;;;;;;;2.45;0.90;;;;;;;17.49;58.85;101238.30;1758835;80;21091;-76
2022/06/17 06:36:49;;;;;;;5.42;1.00;;;;;;;17.56;58.95;101245.82;1760730;80;21043;-77
2022/06/17 06:39:16;;;;;;;2.17;1.37;;;;;;;17.64;58.73;101253.85;1760698;81;21055;-77
2022/06/17 06:41:44;;;;;;;2.85;1.10;;;;;;;17.71;58.63;101252.56;1743768;81;20996;-77
2022/06/17 06:44:11;;;;;;;4.22;1.20;;;;;;;17.78;58.53;101246.89;1761452;81;21010;-79
2022/06/17 06:46:57;;;;;;;2.00;1.17;;;;;;;17.87;58.62;101245.54;1776958;78;21389;-79
2022/06/17 06:49:31;;;;;;;2.55;1.00;;;;;;;17.97;58.40;101251.22;1782754;78;21019;-81
2022/06/17 06:51:59;;;;;;;1.82;0.95;;;;;;;18.02;58.02;101263.77;1776202;79;21640;-80
2022/06/17 06:54:26;;;;;;;4.55;1.10;;;;;;;18.02;57.87;101263.77;1783044;78;21223;-78
2022/06/17 06:56:55;;;;;;;3.20;1.10;;;;;;;18.02;57.84;101259.31;1788967;78;21280;-78
2022/06/17 06:59:22;;;;;;;2.87;1.20;;;;;;;18.04;57.70;101257.44;1793724;78;21121;-80
2022/06/17 07:01:50;;;;;;;5.25;1.40;;;;;;;18.04;57.65;101258.77;1790956;78;21490;-78
2022/06/17 07:04:19;;;;;;;4.17;1.65;;;;;;;18.08;57.47;101264.75;1776209;78;21525;-81
2022/06/17 07:06:47;;;;;;;2.65;1.02;;;;;;;18.12;57.45;101276.89;1779095;78;21044;-78
2022/06/17 07:09:15;;;;;;;3.40;1.10;;;;;;;18.14;57.44;101278.15;1795618;78;20988;-78
2022/06/17 07:11:42;;;;;;;3.55;1.20;;;;;;;18.21;57.33;101279.54;1784603;78;21097;-78
2022/06/17 07:14:10;;;;;;;3.37;1.32;;;;;;;18.28;57.39;101276.91;1777238;79;20979;-79
2022/06/17 07:16:38;;;;;;;2.30;1.20;;;;;;;18.38;57.35;101277.27;1785969;79;21035;-79
2022/06/17 07:19:07;;;;;;;5.35;1.40;;;;;;;18.45;57.08;101278.15;1778080;78;21059;-79
2022/06/17 07:21:34;;;;;;;3.10;1.00;;;;;;;18.49;56.79;101277.05;1794517;79;21469;-79
2022/06/17 07:24:02;;;;;;;2.90;1.10;;;;;;;18.54;56.77;101274.59;1773000;79;21168;-79
2022/06/17 07:26:29;;;;;;;2.70;1.32;;;;;;;18.58;56.65;101274.82;1757288;78;21012;-79
2022/06/17 07:28:57;;;;;;;3.90;1.37;;;;;;;18.61;56.49;101272.84;1757743;78;21011;-76
2022/06/17 07:31:24;;;;;;;6.60;1.37;;;;;;;18.66;56.46;101279.23;1767680;81;21000;-77
2022/06/17 07:33:51;;;;;;;3.02;1.30;;;;;;;18.70;56.40;101270.98;1770147;80;21194;-76
2022/06/17 07:41:55;;;;;;;5.20;1.42;;;;;;;18.89;56.21;101273.47;1755263;81;21046;-76
2022/06/17 07:44:23;;;;;;;4.50;1.60;;;;;;;18.94;56.15;101271.41;1760113;81;21013;-78
2022/06/17 07:46:50;;;;;;;4.03;1.30;;;;;;;19.06;56.14;101268.49;1770476;78;20988;-77
2022/06/17 07:49:19;;;;;;;2.22;1.30;;;;;;;19.13;55.79;101271.66;1770274;81;21140;-77
2022/06/17 07:51:46;;;;;;;2.65;1.12;;;;;;;19.14;55.60;101271.56;1748860;78;21035;-77
2022/06/17 07:54:15;;;;;;;9.15;2.08;;;;;;;19.20;55.68;101269.48;1766558;78;21521;-79
2022/06/17 07:56:42;;;;;;;3.25;1.20;;;;;;;19.31;55.34;101269.70;1769111;81;21449;-77
2022/06/17 07:59:11;;;;;;;4.03;1.80;;;;;;;19.45;55.24;101270.20;1766984;78;21039;-78
2022/06/17 08:01:39;;;;;;;5.03;1.73;;;;;;;19.52;54.88;101272.89;1767502;78;21834;-78
2022/06/17 08:04:06;;;;;;;3.98;1.90;;;;;;;19.54;54.62;101267.01;1767056;80;21063;-77
2022/06/17 08:06:34;;;;;;;3.10;1.30;;;;;;;19.56;54.67;101280.56;1770475;80;21082;-77
2022/06/17 08:09:03;;;;;;;4.80;1.60;;;;;;;19.67;54.58;101283.09;1770129;78;21051;-77
2022/06/17 08:11:30;;;;;;;4.37;1.45;;;;;;;19.75;54.58;101280.33;1770392;80;21458;-76
2022/06/17 08:13:59;;;;;;;6.05;1.45;;;;;;;19.79;54.01;101287.19;1748398;78;21103;-76
2022/06/17 08:16:27;;;;;;;3.72;1.15;;;;;;;19.78;53.55;101287.27;1770143;78;20953;-77
2022/06/17 08:18:54;;;;;;;4.25;1.35;;;;;;;19.86;53.65;101278.83;1770414;78;20996;-76
2022/06/17 08:21:21;;;;;;;3.77;1.22;;;;;;;19.97;53.57;101278.53;1767096;80;21090;-76
2022/06/17 08:23:48;;;;;;;3.22;1.10;;;;;;;20.13;53.52;101281.57;1765393;78;20988;-77
2022/06/17 08:26:16;;;;;;;4.10;1.50;;;;;;;20.26;53.08;101291.34;1773933;78;21174;-78
2022/06/17 08:28:43;;;;;;;3.15;1.87;;;;;;;20.33;52.68;101290.95;1792335;78;21047;-77
2022/06/17 08:31:10;;;;;;;3.58;1.27;;;;;;;20.36;52.57;101283.61;1793480;78;20996;-77
2022/06/17 08:33:38;;;;;;;3.70;1.17;;;;;;;20.45;52.36;101283.48;1782076;78;21008;-82
2022/06/17 08:36:12;;;;;;;2.33;1.27;;;;;;;20.50;52.28;101283.57;1787596;79;21111;-77
2022/06/17 08:38:54;;;;;;;2.77;1.42;;;;;;;20.60;52.46;101287.87;1795612;79;21115;-78
2022/06/17 08:41:26;;;;;;;4.58;1.20;;;;;;;20.77;52.00;101281.92;1790752;78;21051;-77
2022/06/17 08:44:08;;;;;;;2.98;1.00;;;;;;;20.81;51.35;101282.08;1764158;81;20980;-77
2022/06/17 08:47:08;;;;;;;2.95;1.50;;;;;;;20.84;50.79;101281.88;1767051;78;20945;-77
2022/06/17 08:50:02;;;;;;;2.35;1.40;;;;;;;21.00;51.31;101289.23;1763900;79;21067;-78
2022/06/17 08:53:02;;;;;;;3.58;1.30;;;;;;;21.24;51.20;101281.41;1795604;79;21784;-77
2022/06/17 08:55:53;;;;;;;5.08;1.47;;;;;;;21.46;51.05;101282.65;1795391;78;21038;-77
2022/06/17 08:58:38;;;;;;;4.65;1.07;;;;;;;21.61;50.66;101286.91;1779224;79;20994;-77
2022/06/17 09:01:22;;;;;;;5.72;1.55;;;;;;;21.79;50.25;101288.30;1770475;79;21037;-78
2022/06/17 09:04:18;;;;;;;6.53;1.40;;;;;;;21.85;49.57;101288.84;1765153;79;21481;-77
2022/06/17 09:07:18;;;;;;;4.47;1.95;;;;;;;21.78;49.29;101292.39;1771357;78;21279;-77
2022/06/17 09:10:01;;;;;;;9.65;6.12;;;;;;;21.70;49.14;101293.41;1718909;82;21061;-79
2022/06/17 09:13:00;;;;;;;15.10;7.35;;;;;;;21.68;49.26;101289.53;1731531;82;21142;-78
2022/06/17 09:15:55;;;;;;;4.60;2.50;;;;;;;21.80;49.08;101285.99;1718023;83;21071;-80
2022/06/17 09:18:38;;;;;;;4.95;2.72;;;;;;;21.80;48.53;101283.81;1769113;79;21491;-77
2022/06/17 09:21:21;;;;;;;15.40;11.35;;;;;;;21.74;48.56;101290.44;1764274;81;21098;-78
2022/06/17 09:23:53;;;;;;;5.28;3.30;;;;;;;21.81;48.68;101293.06;1752936;80;21039;-77
2022/06/17 09:26:28;;;;;;;25.00;19.55;;;;;;;21.93;48.53;101295.83;1776332;80;21079;-77
2022/06/17 09:29:22;;;;;;;14.15;12.23;;;;;;;22.03;48.39;101299.53;1763291;79;21516;-76
2022/06/17 09:31:57;;;;;;;6.45;2.87;;;;;;;21.99;47.92;101310.91;1730928;81;21046;-78
2022/06/17 09:34:30;;;;;;;44.33;7.58;;;;;;;21.93;47.64;101297.16;1753253;81;21719;-76
2022/06/17 09:37:05;;;;;;;14.98;2.58;;;;;;;21.97;47.77;101294.14;1749066;80;21103;-78
2022/06/17 09:39:59;;;;;;;3.65;1.55;;;;;;;22.13;47.83;101300.59;1753729;80;21045;-77
2022/06/17 09:42:40;;;;;;;3.87;1.35;;;;;;;22.14;47.13;101298.31;1761123;80;21530;-80
2022/06/17 09:45:13;;;;;;;4.80;1.30;;;;;;;22.04;46.97;101303.92;1761026;80;21059;-77
2022/06/17 09:47:47;;;;;;;4.05;1.20;;;;;;;22.00;47.01;101297.08;1761009;80;21104;-77
2022/06/17 09:50:32;;;;;;;2.92;1.20;;;;;;;22.08;47.13;101302.73;1759750;80;21477;-79
2022/06/17 09:53:04;;;;;;;2.72;1.40;;;;;;;22.16;46.97;101305.70;1737446;81;21097;-78
2022/06/17 09:55:43;;;;;;;4.65;1.17;;;;;;;22.20;46.80;101299.72;1779892;79;20992;-77
2022/06/17 09:58:31;;;;;;;3.03;1.30;;;;;;;22.39;47.08;101293.88;1776010;78;21010;-76
2022/06/17 10:00:59;;;;;;;2.52;1.30;;;;;;;22.64;47.09;101295.16;1759696;81;21437;-76
2022/06/17 10:03:34;;;;;;;4.65;1.15;;;;;;;22.69;45.94;101298.80;1776600;79;20927;-79
2022/06/17 10:06:22;;;;;;;1.98;1.20;;;;;;;22.68;45.74;101297.11;1760282;80;21040;-76
2022/06/17 10:09:26;;;;;;;1.65;1.17;;;;;;;22.81;45.78;101302.38;1760768;80;21009;-75
2022/06/17 10:12:27;;;;;;;1.67;1.02;;;;;;;22.74;45.40;101300.66;1765130;80;21513;-76
2022/06/17 10:15:27;;;;;;;3.62;1.27;;;;;;;22.73;45.54;101296.78;1736567;81;21083;-75
2022/06/17 10:21:17;;;;;;;5.05;1.40;;;;;;;23.15;45.14;101292.73;1790719;79;21496;-77
2022/06/17 10:24:13;;;;;;;2.35;1.25;;;;;;;23.39;45.04;101287.34;1789449;79;21003;-76
2022/06/17 10:27:10;;;;;;;3.02;1.27;;;;;;;23.58;44.46;101288.95;1748416;81;21098;-77
2022/06/17 10:30:11;;;;;;;4.65;1.60;;;;;;;23.50;44.09;101273.98;1721770;80;21116;-77
2022/06/17 10:32:43;;;;;;;2.25;1.20;;;;;;;23.66;44.05;101286.99;1752753;81;21537;-77
2022/06/17 10:35:27;;;;;;;3.30;1.20;;;;;;;24.03;43.92;101290.34;1753062;81;21009;-77
2022/06/17 10:37:59;;;;;;;3.35;1.57;;;;;;;24.37;43.79;101290.30;1752667;81;21479;-77
2022/06/17 10:40:30;;;;;;;1.95;1.02;;;;;;;24.67;43.20;101286.98;1740245;81;21014;-77
2022/06/17 10:43:04;;;;;;;2.85;1.10;;;;;;;24.58;42.47;101296.25;1745181;81;21110;-76
2022/06/17 10:45:35;;;;;;;2.50;1.05;;;;;;;24.52;42.30;101299.44;1753063;81;21502;-78
2022/06/17 10:48:23;;;;;;;3.80;1.05;;;;;;;24.88;42.22;101288.84;1731674;80;21037;-78
2022/06/17 10:50:52;;;;;;;2.02;0.90;;;;;;;25.35;41.92;101301.45;1752482;81;21038;-78
2022/06/17 10:53:43;;;;;;;2.42;1.32;;;;;;;25.90;41.70;101287.31;1752857;81;21056;-78
2022/06/17 10:56:22;;;;;;;3.30;1.20;;;;;;;26.40;41.13;101276.58;1753155;81;21951;-78
2022/06/17 10:58:59;;;;;;;3.58;0.90;;;;;;;26.75;40.11;101272.57;1752271;80;20967;-78
2022/06/17 11:01:49;;;;;;;4.22;0.80;;;;;;;26.30;39.27;101284.27;1752810;81;21278;-78
2022/06/17 11:04:21;;;;;;;2.25;0.95;;;;;;;26.48;39.28;101275.89;1753038;81;21053;-79
2022/06/17 11:06:56;;;;;;;2.22;1.12;;;;;;;26.85;39.24;101277.43;1743256;81;20997;-78
2022/06/17 11:09:28;;;;;;;3.20;0.98;;;;;;;26.98;38.55;101277.16;1753272;81;21113;-79
2022/06/17 11:12:03;;;;;;;2.40;0.90;;;;;;;26.84;38.18;101272.21;1756037;81;21054;-79
2022/06/17 11:14:48;;;;;;;1.50;0.90;;;;;;;26.54;37.82;101272.67;1757345;81;21052;-79
2022/06/17 11:17:40;;;;;;;1.67;0.75;;;;;;;26.67;38.07;101272.42;1752487;81;21112;-78
2022/06/17 11:20:23;;;;;;;2.15;1.10;;;;;;;26.94;37.83;101265.00;1766981;80;21047;-78
2022/06/17 11:23:01;;;;;;;1.30;0.70;;;;;;;27.23;37.69;101270.37;1758095;80;21207;-78
2022/06/17 11:25:41;;;;;;;1.05;0.82;;;;;;;27.63;37.28;101260.34;1749198;81;21011;-78
2022/06/17 11:28:37;;;;;;;1.98;0.90;;;;;;;27.75;36.57;101258.68;1775808;80;21077;-79
2022/06/17 11:31:12;;;;;;;2.00;1.00;;;;;;;27.27;35.92;101270.45;1710279;82;21002;-79
2022/06/17 11:33:57;;;;;;;3.27;0.90;;;;;;;27.20;36.14;101258.55;1714154;82;21013;-79
2022/06/17 11:36:36;;;;;;;1.32;0.80;;;;;;;27.63;36.47;101263.91;1716622;82;21130;-78
2022/06/17 11:39:25;;;;;;;4.20;0.90;;;;;;;28.14;36.08;101256.34;1716928;82;21541;-78
2022/06/17 11:41:53;;;;;;;1.80;0.80;;;;;;;28.41;35.31;101257.66;1704916;81;21085;-78
2022/06/17 11:44:20;;;;;;;1.00;0.85;;;;;;;28.21;35.16;101253.38;1716864;82;21037;-77
2022/06/17 11:46:58;;;;;;;1.80;1.12;;;;;;;28.12;35.08;101256.48;1716665;82;21083;-78
2022/06/17 11:49:26;;;;;;;1.80;1.10;;;;;;;27.79;34.86;101253.84;1716390;82;21076;-78
2022/06/17 11:52:01;;;;;;;1.95;0.90;;;;;;;27.75;35.13;101253.30;1716543;82;21060;-78
2022/06/17 11:54:41;;;;;;;1.70;1.17;;;;;;;27.90;35.10;101250.14;1716863;82;21684;-77
2022/06/17 11:57:24;;;;;;;2.98;1.00;;;;;;;28.01;34.75;101252.64;1710199;83;21093;-77
2022/06/17 11:59:56;;;;;;;3.60;1.12;;;;;;;27.68;34.44;101251.33;1704107;82;21082;-77
2022/06/17 12:02:24;;;;;;;4.12;1.10;;;;;;;27.41;34.80;101247.61;1744721;81;21020;-77
2022/06/17 12:04:56;;;;;;;1.30;0.80;;;;;;;27.61;35.09;101247.05;1749246;81;21024;-78
2022/06/17 12:07:41;;;;;;;2.00;0.70;;;;;;;27.95;35.17;101250.55;1760082;81;20947;-77
2022/06/17 12:10:32;;;;;;;2.17;0.82;;;;;;;28.34;34.65;101248.98;1769517;81;21108;-77